createdAt,value
2022-12-18T00:00:59.294Z,-5.33
2022-12-18T00:03:30.015Z,-5.37
2022-12-18T00:06:00.427Z,-5.37
2022-12-18T00:08:30.756Z,-5.40
2022-12-18T00:11:08.905Z,-5.43
2022-12-18T00:13:39.925Z,-5.51
2022-12-18T00:16:16.189Z,-5.57
2022-12-18T00:18:46.992Z,-5.57
2022-12-18T00:21:17.931Z,-5.62
2022-12-18T00:23:50.391Z,-5.63
2022-12-18T00:26:23.521Z,-5.67
2022-12-18T00:29:02.445Z,-5.66
2022-12-18T00:31:39.163Z,-5.64
2022-12-18T00:34:09.632Z,-5.62
2022-12-18T00:36:43.125Z,-5.64
2022-12-18T00:39:20.913Z,-5.64
2022-12-18T00:42:09.273Z,-5.66
2022-12-18T00:44:39.610Z,-5.73
2022-12-18T00:47:13.559Z,-5.78
2022-12-18T00:49:43.926Z,-5.83
2022-12-18T00:52:14.213Z,-5.84
2022-12-18T00:54:44.524Z,-5.88
2022-12-18T00:57:14.800Z,-5.86
2022-12-18T00:59:45.320Z,-5.89
2022-12-18T01:02:18.864Z,-5.90
2022-12-18T01:04:49.314Z,-5.95
2022-12-18T01:07:23.553Z,-5.99
2022-12-18T01:09:53.873Z,-6.01
2022-12-18T01:12:24.167Z,-6.03
2022-12-18T01:14:54.527Z,-6.02
2022-12-18T01:17:27.543Z,-6.07
2022-12-18T01:19:57.808Z,-6.10
2022-12-18T01:22:28.401Z,-6.14
2022-12-18T01:24:58.762Z,-6.17
2022-12-18T01:27:29.089Z,-6.19
2022-12-18T01:29:59.839Z,-6.18
2022-12-18T01:32:34.417Z,-6.20
2022-12-18T01:35:06.758Z,-6.22
2022-12-18T01:37:37.228Z,-6.23
2022-12-18T01:40:10.295Z,-6.24
2022-12-18T01:42:41.000Z,-6.26
2022-12-18T01:45:27.110Z,-6.27
2022-12-18T01:48:02.771Z,-6.33
2022-12-18T01:50:38.015Z,-6.36
2022-12-18T01:53:17.278Z,-6.42
2022-12-18T01:55:51.293Z,-6.43
2022-12-18T01:58:24.304Z,-6.43
2022-12-18T02:00:54.718Z,-6.48
2022-12-18T02:03:27.787Z,-6.48
2022-12-18T02:06:08.220Z,-6.49
2022-12-18T02:08:45.946Z,-6.50
2022-12-18T02:11:24.258Z,-6.51
2022-12-18T02:14:06.368Z,-6.50
2022-12-18T02:16:48.784Z,-6.50
2022-12-18T02:19:41.663Z,-6.53
2022-12-18T02:22:30.860Z,-6.50
2022-12-18T02:25:20.754Z,-6.54
2022-12-18T02:27:56.850Z,-6.54
2022-12-18T02:30:27.838Z,-6.56
2022-12-18T02:33:00.091Z,-6.57
2022-12-18T02:35:33.583Z,-6.60
2022-12-18T02:38:07.524Z,-6.60
2022-12-18T02:40:42.061Z,-6.62
2022-12-18T02:43:18.417Z,-6.65
2022-12-18T02:45:56.371Z,-6.67
2022-12-18T02:48:32.355Z,-6.66
2022-12-18T02:51:12.044Z,-6.65
2022-12-18T02:53:52.388Z,-6.69
2022-12-18T02:56:28.057Z,-6.74
2022-12-18T02:59:04.801Z,-6.74
2022-12-18T03:01:54.765Z,-6.72
2022-12-18T03:04:31.100Z,-6.71
2022-12-18T03:07:07.455Z,-6.70
2022-12-18T03:09:43.583Z,-6.69
2022-12-18T03:12:28.827Z,-6.72
2022-12-18T03:15:12.064Z,-6.78
2022-12-18T03:17:56.345Z,-6.81
2022-12-18T03:20:32.991Z,-6.82
2022-12-18T03:23:14.247Z,-6.83
2022-12-18T03:25:52.001Z,-6.85
2022-12-18T03:28:26.433Z,-6.85
2022-12-18T03:31:08.734Z,-6.88
2022-12-18T03:33:45.065Z,-6.87
2022-12-18T03:36:15.870Z,-6.89
2022-12-18T03:38:46.385Z,-6.90
2022-12-18T03:41:27.062Z,-6.93
2022-12-18T03:44:25.264Z,-6.94
2022-12-18T03:47:07.602Z,-6.96
2022-12-18T03:49:44.184Z,-6.95
2022-12-18T03:52:20.856Z,-6.95
2022-12-18T03:54:51.704Z,-6.94
2022-12-18T03:57:27.149Z,-6.93
2022-12-18T04:00:04.591Z,-6.99
2022-12-18T04:02:53.461Z,-6.95
2022-12-18T04:05:31.056Z,-6.96
2022-12-18T04:08:02.443Z,-6.96
2022-12-18T04:10:34.113Z,-6.95
2022-12-18T04:13:05.793Z,-6.98
2022-12-18T04:15:39.612Z,-7.01
2022-12-18T04:18:16.286Z,-7.07
2022-12-18T04:20:47.520Z,-7.10
2022-12-18T04:23:18.425Z,-7.11
2022-12-18T04:25:51.088Z,-7.12
2022-12-18T04:28:34.517Z,-7.15
2022-12-18T04:31:05.041Z,-7.18
2022-12-18T04:33:38.429Z,-7.21
2022-12-18T04:36:10.824Z,-7.27
2022-12-18T04:38:41.703Z,-7.30
2022-12-18T04:41:17.332Z,-7.33
2022-12-18T04:43:50.783Z,-7.34
2022-12-18T04:46:21.194Z,-7.33
2022-12-18T04:48:54.348Z,-7.31
2022-12-18T04:51:26.861Z,-7.33
2022-12-18T04:53:57.965Z,-7.33
2022-12-18T04:56:28.467Z,-7.36
2022-12-18T04:58:58.878Z,-7.39
2022-12-18T05:01:34.213Z,-7.41
2022-12-18T05:04:08.234Z,-7.41
2022-12-18T05:06:38.604Z,-7.43
2022-12-18T05:09:09.027Z,-7.43
2022-12-18T05:11:40.244Z,-7.46
2022-12-18T05:14:10.645Z,-7.46
2022-12-18T05:16:40.974Z,-7.49
2022-12-18T05:19:13.933Z,-7.50
2022-12-18T05:21:44.703Z,-7.48
2022-12-18T05:24:16.517Z,-7.51
2022-12-18T05:26:46.915Z,-7.55
2022-12-18T05:29:17.469Z,-7.53
2022-12-18T05:31:47.927Z,-7.51
2022-12-18T05:34:21.076Z,-7.51
2022-12-18T05:36:51.467Z,-7.52
2022-12-18T05:39:21.875Z,-7.50
2022-12-18T05:41:52.201Z,-7.51
2022-12-18T05:44:22.513Z,-7.51
2022-12-18T05:46:52.949Z,-7.54
2022-12-18T05:49:26.028Z,-7.54
2022-12-18T05:51:56.291Z,-7.56
2022-12-18T05:54:26.630Z,-7.54
2022-12-18T05:56:57.066Z,-7.54
2022-12-18T05:59:27.641Z,-7.57
2022-12-18T06:01:58.070Z,-7.56
2022-12-18T06:04:32.425Z,-7.54
2022-12-18T06:07:02.912Z,-7.54
2022-12-18T06:09:34.000Z,-7.47
2022-12-18T06:12:04.404Z,-7.48
2022-12-18T06:14:34.704Z,-7.44
2022-12-18T06:17:05.065Z,-7.40
2022-12-18T06:19:37.937Z,-7.46
2022-12-18T06:22:08.270Z,-7.47
2022-12-18T06:24:38.581Z,-7.45
2022-12-18T06:27:08.896Z,-7.46
2022-12-18T06:29:39.141Z,-7.49
2022-12-18T06:32:09.971Z,-7.43
2022-12-18T06:34:44.472Z,-7.47
2022-12-18T06:37:14.764Z,-7.46
2022-12-18T06:39:45.037Z,-7.49
2022-12-18T06:42:16.010Z,-7.45
2022-12-18T06:44:46.421Z,-7.42
2022-12-18T06:47:16.804Z,-7.39
2022-12-18T06:49:50.235Z,-7.40
2022-12-18T06:52:20.583Z,-7.38
2022-12-18T06:54:50.971Z,-7.36
2022-12-18T06:57:22.827Z,-7.24
2022-12-18T06:59:53.219Z,-7.08
2022-12-18T07:02:23.657Z,-7.01
2022-12-18T07:04:56.676Z,-6.90
2022-12-18T07:07:27.116Z,-6.74
2022-12-18T07:09:57.456Z,-6.58
2022-12-18T07:12:27.779Z,-6.47
2022-12-18T07:14:58.103Z,-6.36
2022-12-18T07:17:28.528Z,-6.29
2022-12-18T07:20:01.905Z,-6.19
2022-12-18T07:22:32.217Z,-6.11
2022-12-18T07:25:02.472Z,-6.03
2022-12-18T07:27:32.791Z,-5.97
2022-12-18T07:30:03.032Z,-5.86
2022-12-18T07:32:35.565Z,-5.76
2022-12-18T07:35:09.387Z,-5.69
2022-12-18T07:37:39.708Z,-5.62
2022-12-18T07:40:12.573Z,-5.53
2022-12-18T07:42:43.237Z,-5.47
2022-12-18T07:45:14.454Z,-5.41
2022-12-18T07:47:45.079Z,-5.33
2022-12-18T07:50:18.482Z,-5.20
2022-12-18T07:52:48.790Z,-5.10
2022-12-18T07:55:19.431Z,-5.06
2022-12-18T07:57:51.821Z,-4.96
2022-12-18T08:00:23.408Z,-4.87
2022-12-18T08:02:54.483Z,-4.79
2022-12-18T08:05:27.413Z,-4.72
2022-12-18T08:07:58.393Z,-4.62
2022-12-18T08:10:28.721Z,-4.50
2022-12-18T08:13:04.562Z,-4.39
2022-12-18T08:15:35.457Z,-4.31
2022-12-18T08:18:08.107Z,-4.19
2022-12-18T08:20:44.326Z,-4.03
2022-12-18T08:23:14.628Z,-3.88
2022-12-18T08:25:45.104Z,-3.76
2022-12-18T08:28:15.842Z,-3.56
2022-12-18T08:30:46.431Z,-3.41
2022-12-18T08:33:17.220Z,-3.21
2022-12-18T08:35:50.257Z,-2.94
2022-12-18T08:38:20.730Z,-2.71
2022-12-18T08:40:51.473Z,-2.52
2022-12-18T08:43:43.344Z,-2.29
2022-12-18T08:46:13.925Z,-1.95
2022-12-18T08:48:44.780Z,-1.75
2022-12-18T08:51:19.955Z,-1.85
2022-12-18T08:53:50.868Z,-1.59
2022-12-18T08:56:21.379Z,-1.20
2022-12-18T08:58:51.678Z,-0.89
2022-12-18T09:01:22.337Z,-0.55
2022-12-18T09:03:53.685Z,-0.53
2022-12-18T09:06:27.667Z,-0.50
2022-12-18T09:08:57.996Z,-0.42
2022-12-18T09:11:30.842Z,-0.27
2022-12-18T09:14:03.324Z,-0.07
2022-12-18T09:16:36.129Z,0.19
2022-12-18T09:19:08.736Z,0.79
2022-12-18T09:21:47.706Z,1.94
2022-12-18T09:24:21.985Z,2.81
2022-12-18T09:26:57.439Z,3.34
2022-12-18T09:29:28.450Z,3.86
2022-12-18T09:31:58.976Z,4.09
2022-12-18T09:34:29.372Z,4.12
2022-12-18T09:37:06.801Z,4.12
2022-12-18T09:39:47.888Z,4.50
2022-12-18T09:42:23.981Z,4.59
2022-12-18T09:44:58.631Z,4.25
2022-12-18T09:47:34.639Z,3.96
2022-12-18T09:50:14.249Z,3.39
2022-12-18T09:52:55.783Z,3.07
2022-12-18T09:55:37.255Z,2.96
2022-12-18T09:58:17.279Z,2.79
2022-12-18T10:00:48.256Z,2.89
2022-12-18T10:03:19.842Z,2.95
2022-12-18T10:06:03.071Z,3.23
2022-12-18T10:08:47.954Z,3.76
2022-12-18T10:11:36.530Z,4.35
2022-12-18T10:14:14.881Z,4.79
2022-12-18T10:16:59.418Z,5.11
2022-12-18T10:20:02.136Z,5.23
2022-12-18T10:22:47.725Z,4.98
2022-12-18T10:25:28.816Z,4.52
2022-12-18T10:28:04.770Z,4.17
2022-12-18T10:30:35.049Z,3.98
2022-12-18T10:33:05.865Z,3.93
2022-12-18T10:35:36.306Z,3.92
2022-12-18T10:38:10.639Z,3.87
2022-12-18T10:40:57.829Z,3.99
2022-12-18T10:43:31.212Z,4.17
2022-12-18T10:46:21.332Z,4.37
2022-12-18T10:49:00.355Z,4.26
2022-12-18T10:51:34.871Z,4.15
2022-12-18T10:54:08.632Z,4.03
2022-12-18T10:56:44.264Z,4.23
2022-12-18T10:59:17.663Z,4.60
2022-12-18T11:01:56.079Z,5.13
2022-12-18T11:04:28.752Z,5.28
2022-12-18T11:07:04.013Z,5.07
2022-12-18T11:09:36.372Z,5.28
2022-12-18T11:12:19.934Z,5.61
2022-12-18T11:14:53.129Z,6.31
2022-12-18T11:17:27.140Z,7.11
2022-12-18T11:20:00.194Z,7.89
2022-12-18T11:22:33.376Z,8.75
2022-12-18T11:28:03.181Z,10.35
2022-12-18T11:30:35.965Z,10.93
2022-12-18T11:33:12.477Z,11.19
2022-12-18T11:35:52.527Z,11.71
2022-12-18T11:38:27.678Z,12.12
2022-12-18T11:41:04.219Z,12.28
2022-12-18T11:43:44.836Z,12.38
2022-12-18T11:46:20.157Z,11.98
2022-12-18T11:48:58.097Z,10.76
2022-12-18T11:51:38.543Z,11.68
2022-12-18T11:54:17.545Z,10.90
2022-12-18T11:56:55.279Z,10.31
2022-12-18T11:59:39.862Z,9.31
2022-12-18T12:02:37.836Z,8.16
2022-12-18T12:05:29.829Z,7.18
2022-12-18T12:08:13.954Z,6.54
2022-12-18T12:10:59.698Z,6.10
2022-12-18T12:13:47.573Z,5.66
2022-12-18T12:16:29.469Z,5.37
2022-12-18T12:19:19.801Z,5.25
2022-12-18T12:21:59.477Z,5.59
2022-12-18T12:24:45.854Z,6.16
2022-12-18T12:27:28.847Z,6.54
2022-12-18T12:30:09.076Z,7.32
2022-12-18T12:33:08.121Z,7.61
2022-12-18T12:35:56.116Z,7.25
2022-12-18T12:38:32.898Z,7.04
2022-12-18T12:41:28.245Z,8.38
2022-12-18T12:43:59.941Z,9.92
2022-12-18T12:46:36.672Z,8.93
2022-12-18T12:49:17.576Z,8.85
2022-12-18T12:51:56.250Z,10.00
2022-12-18T12:54:31.401Z,9.29
2022-12-18T12:57:09.708Z,9.12
2022-12-18T12:59:50.251Z,8.44
2022-12-18T13:02:28.349Z,8.08
2022-12-18T13:05:09.174Z,7.58
2022-12-18T13:07:45.118Z,7.13
2022-12-18T13:10:38.267Z,6.35
2022-12-18T13:13:10.589Z,5.76
2022-12-18T13:15:47.908Z,5.29
2022-12-18T13:18:24.245Z,5.10
2022-12-18T13:21:22.134Z,4.93
2022-12-18T13:23:52.582Z,4.82
2022-12-18T13:26:43.989Z,4.41
2022-12-18T13:29:14.063Z,4.08
2022-12-18T13:32:23.968Z,3.53
2022-12-18T13:35:42.797Z,3.39
2022-12-18T13:38:36.525Z,3.15
2022-12-18T13:41:08.690Z,2.90
2022-12-18T13:43:46.311Z,2.59
2022-12-18T13:46:31.253Z,2.49
2022-12-18T13:49:09.101Z,2.43
2022-12-18T13:51:40.097Z,2.27
2022-12-18T13:54:23.699Z,2.02
2022-12-18T13:56:54.176Z,1.71
2022-12-18T13:59:29.576Z,1.56
2022-12-18T14:02:04.278Z,1.39
2022-12-18T14:04:38.237Z,1.40
2022-12-18T14:07:11.766Z,1.28
2022-12-18T14:09:50.224Z,1.19
2022-12-18T14:12:36.500Z,1.00
2022-12-18T14:15:10.716Z,0.95
2022-12-18T14:17:44.089Z,0.79
2022-12-18T14:20:18.919Z,0.59
2022-12-18T14:22:51.532Z,0.56
2022-12-18T14:25:28.447Z,0.45
2022-12-18T14:28:19.031Z,0.39
2022-12-18T14:30:50.357Z,0.47
2022-12-18T14:33:22.603Z,0.28
2022-12-18T14:36:02.656Z,0.19
2022-12-18T14:38:35.054Z,0.16
2022-12-18T14:41:12.888Z,0.07
2022-12-18T14:43:45.553Z,-0.01
2022-12-18T14:46:34.345Z,-0.01
2022-12-18T14:49:07.857Z,-0.07
2022-12-18T14:51:40.443Z,-0.15
2022-12-18T14:54:21.219Z,-0.35
2022-12-18T14:57:01.687Z,-0.37
2022-12-18T14:59:33.799Z,-0.49
2022-12-18T15:02:14.867Z,-0.59
2022-12-18T15:04:46.117Z,-0.56
2022-12-18T15:07:21.202Z,-0.53
2022-12-18T15:10:14.783Z,-0.66
2022-12-18T15:12:49.770Z,-0.72
2022-12-18T15:15:52.392Z,-0.73
2022-12-18T15:18:24.591Z,-0.73
2022-12-18T15:20:56.986Z,-0.83
2022-12-18T15:23:31.460Z,-0.88
2022-12-18T15:26:04.322Z,-0.89
2022-12-18T15:28:41.539Z,-0.90
2022-12-18T15:31:28.217Z,-1.03
2022-12-18T15:34:23.391Z,-1.13
2022-12-18T15:36:55.255Z,-1.07
2022-12-18T15:39:25.665Z,-0.98
2022-12-18T15:42:08.734Z,-0.98
2022-12-18T15:44:41.750Z,-0.99
2022-12-18T15:47:16.855Z,-1.03
2022-12-18T15:49:47.259Z,-0.99
2022-12-18T15:52:27.136Z,-0.94
2022-12-18T15:55:09.988Z,-1.08
2022-12-18T15:57:40.307Z,-0.99
2022-12-18T16:00:17.337Z,-0.95
2022-12-18T16:02:47.958Z,-1.00
2022-12-18T16:05:21.303Z,-1.01
2022-12-18T16:07:52.251Z,-0.98
2022-12-18T16:10:22.989Z,-0.98
2022-12-18T16:12:53.722Z,-1.02
2022-12-18T16:15:26.686Z,-1.05
2022-12-18T16:17:57.082Z,-1.10
2022-12-18T16:20:27.459Z,-1.10
2022-12-18T16:22:57.788Z,-1.26
2022-12-18T16:25:31.280Z,-1.28
2022-12-18T16:28:01.613Z,-1.30
2022-12-18T16:30:38.493Z,-1.21
2022-12-18T16:33:09.440Z,-1.20
2022-12-18T16:35:40.096Z,-1.20
2022-12-18T16:38:10.495Z,-1.21
2022-12-18T16:41:03.692Z,-1.26
2022-12-18T16:43:33.985Z,-1.29
2022-12-18T16:46:06.960Z,-1.29
2022-12-18T16:48:37.364Z,-1.28
2022-12-18T16:51:09.207Z,-1.28
2022-12-18T16:53:39.814Z,-1.31
2022-12-18T16:56:10.756Z,-1.34
2022-12-18T16:58:41.142Z,-1.36
2022-12-18T17:01:15.762Z,-1.40
2022-12-18T17:03:46.355Z,-1.35
2022-12-18T17:06:17.631Z,-1.31
2022-12-18T17:08:49.257Z,-1.35
2022-12-18T17:11:19.567Z,-1.34
2022-12-18T17:13:49.847Z,-1.27
2022-12-18T17:16:23.385Z,-1.31
2022-12-18T17:18:53.983Z,-1.33
2022-12-18T17:21:24.489Z,-1.30
2022-12-18T17:23:55.007Z,-1.20
2022-12-18T17:26:25.361Z,-1.21
2022-12-18T17:28:55.812Z,-1.17
2022-12-18T17:31:31.785Z,-1.21
2022-12-18T17:34:02.706Z,-1.14
2022-12-18T17:36:34.010Z,-1.15
2022-12-18T17:39:05.607Z,-1.18
2022-12-18T17:41:36.463Z,-1.16
2022-12-18T17:44:08.931Z,-1.11
2022-12-18T17:46:42.307Z,-1.01
2022-12-18T17:49:14.713Z,-0.99
2022-12-18T17:51:45.696Z,-1.05
2022-12-18T17:54:16.696Z,-0.94
2022-12-18T17:56:47.030Z,-0.92
2022-12-18T17:59:17.745Z,-0.96
2022-12-18T18:01:52.170Z,-0.92
2022-12-18T18:04:22.676Z,-0.94
2022-12-18T18:06:53.003Z,-0.93
2022-12-18T18:09:28.975Z,-0.88
2022-12-18T18:12:38.181Z,-0.77
2022-12-18T18:15:14.475Z,-0.65
2022-12-18T18:17:59.305Z,-0.64
2022-12-18T18:20:30.547Z,-0.66
2022-12-18T18:23:04.408Z,-0.63
2022-12-18T18:25:34.738Z,-0.63
2022-12-18T18:28:11.447Z,-0.59
2022-12-18T18:30:42.120Z,-0.58
2022-12-18T18:33:15.317Z,-0.59
2022-12-18T18:35:54.563Z,-0.54
2022-12-18T18:38:34.440Z,-0.49
2022-12-18T18:41:31.887Z,-0.45
2022-12-18T18:44:16.243Z,-0.26
2022-12-18T18:46:48.853Z,-0.23
2022-12-18T18:49:40.708Z,-0.13
2022-12-18T18:55:25.219Z,-0.01
2022-12-18T19:01:01.357Z,0.11
2022-12-18T19:03:42.473Z,0.15
2022-12-18T19:06:23.899Z,0.14
2022-12-18T19:09:00.838Z,0.25
2022-12-18T19:11:46.783Z,0.28
2022-12-18T19:14:23.837Z,0.31
2022-12-18T19:16:57.006Z,0.40
2022-12-18T19:19:39.186Z,0.40
2022-12-18T19:22:19.204Z,0.40
2022-12-18T19:24:49.768Z,0.46
2022-12-18T19:27:26.925Z,0.52
2022-12-18T19:29:59.742Z,0.57
2022-12-18T19:32:33.163Z,0.59
2022-12-18T19:35:03.514Z,0.67
2022-12-18T19:37:40.367Z,0.71
2022-12-18T19:40:17.637Z,0.68
2022-12-18T19:42:56.360Z,0.71
2022-12-18T19:45:29.123Z,0.72
2022-12-18T19:48:04.442Z,0.72
2022-12-18T19:50:48.275Z,0.83
2022-12-18T19:53:25.578Z,0.89
2022-12-18T19:56:02.420Z,0.85
2022-12-18T19:58:45.289Z,0.91
2022-12-18T20:01:28.204Z,0.94
2022-12-18T20:04:02.884Z,0.96
2022-12-18T20:06:53.334Z,0.95
2022-12-18T20:09:43.506Z,0.92
2022-12-18T20:12:22.429Z,0.95
2022-12-18T20:14:55.120Z,0.93
2022-12-18T20:17:31.635Z,0.99
2022-12-18T20:20:04.254Z,1.05
2022-12-18T20:22:47.260Z,1.10
2022-12-18T20:25:21.751Z,1.09
2022-12-18T20:27:52.607Z,1.11
2022-12-18T20:30:24.039Z,1.10
2022-12-18T20:32:57.252Z,1.09
2022-12-18T20:35:33.750Z,1.16
2022-12-18T20:38:14.589Z,1.09
2022-12-18T20:40:56.720Z,1.10
2022-12-18T20:43:32.762Z,1.10
2022-12-18T20:46:51.383Z,1.09
2022-12-18T20:49:36.560Z,1.07
2022-12-18T20:52:16.915Z,1.07
2022-12-18T20:54:56.978Z,1.09
2022-12-18T20:57:35.801Z,1.08
2022-12-18T21:00:18.875Z,1.00
2022-12-18T21:02:55.621Z,0.96
2022-12-18T21:05:26.019Z,1.03
2022-12-18T21:08:02.466Z,1.09
2022-12-18T21:10:37.070Z,1.06
2022-12-18T21:13:13.688Z,1.06
2022-12-18T21:15:47.709Z,1.04
2022-12-18T21:18:22.266Z,1.04
2022-12-18T21:20:54.470Z,1.01
2022-12-18T21:23:26.720Z,1.08
2022-12-18T21:25:59.377Z,1.12
2022-12-18T21:28:32.288Z,1.19
2022-12-18T21:31:05.727Z,1.30
2022-12-18T21:33:37.864Z,1.30
2022-12-18T21:36:09.749Z,1.32
2022-12-18T21:38:40.236Z,1.33
2022-12-18T21:41:37.445Z,1.48
2022-12-18T21:44:14.386Z,1.72
2022-12-18T21:46:52.949Z,1.82
2022-12-18T21:49:26.286Z,1.86
2022-12-18T21:51:59.423Z,1.91
2022-12-18T21:54:31.754Z,1.86
2022-12-18T21:57:04.852Z,1.77
2022-12-18T21:59:40.006Z,1.77
2022-12-18T22:02:15.996Z,1.75
2022-12-18T22:04:47.746Z,1.76
2022-12-18T22:07:19.932Z,1.83
2022-12-18T22:09:50.259Z,1.78
2022-12-18T22:12:35.850Z,1.70
2022-12-18T22:15:21.792Z,1.68
2022-12-18T22:17:59.683Z,1.61
2022-12-18T22:20:30.806Z,1.61
2022-12-18T22:23:05.784Z,1.63
2022-12-18T22:25:39.280Z,1.65
2022-12-18T22:28:22.844Z,1.60
2022-12-18T22:30:59.058Z,1.62
2022-12-18T22:33:31.260Z,1.78
2022-12-18T22:36:07.898Z,1.87
2022-12-18T22:38:38.175Z,1.87
2022-12-18T22:41:08.930Z,1.79
2022-12-18T22:43:39.285Z,1.79
2022-12-18T22:46:18.735Z,1.79
2022-12-18T22:48:49.094Z,1.80
2022-12-18T22:51:21.332Z,1.83
2022-12-18T22:53:51.795Z,1.96
2022-12-18T22:56:22.188Z,1.93
2022-12-18T22:58:54.076Z,1.84
2022-12-18T23:01:30.639Z,1.83
2022-12-18T23:04:02.384Z,1.80
2022-12-18T23:06:32.812Z,1.80
2022-12-18T23:09:03.146Z,1.77
2022-12-18T23:11:33.602Z,1.78
2022-12-18T23:14:04.463Z,1.81
2022-12-18T23:16:37.998Z,1.91
2022-12-18T23:19:08.682Z,2.00
2022-12-18T23:21:39.429Z,2.04
2022-12-18T23:24:11.127Z,1.90
2022-12-18T23:26:41.709Z,1.93
2022-12-18T23:29:12.231Z,1.92
2022-12-18T23:31:45.839Z,1.84
2022-12-18T23:34:17.993Z,1.80
2022-12-18T23:36:50.935Z,1.85
2022-12-18T23:39:29.734Z,1.91
2022-12-18T23:42:00.749Z,1.96
2022-12-18T23:44:31.526Z,1.93
2022-12-18T23:47:04.595Z,1.86
2022-12-18T23:49:35.173Z,1.87
2022-12-18T23:52:05.975Z,1.85
2022-12-18T23:54:36.366Z,1.76
2022-12-18T23:57:09.165Z,1.73
2022-12-18T23:59:39.669Z,1.81
